createdAt,value
2023-02-12T00:00:19.427Z,3.60
2023-02-12T00:03:05.242Z,3.60
2023-02-12T00:05:50.800Z,3.50
2023-02-12T00:08:36.805Z,3.50
2023-02-12T00:11:27.261Z,3.40
2023-02-12T00:14:12.775Z,3.40
2023-02-12T00:16:58.234Z,3.40
2023-02-12T00:19:43.563Z,3.30
2023-02-12T00:22:29.613Z,3.20
2023-02-12T00:25:15.230Z,3.20
2023-02-12T00:28:00.995Z,3.20
2023-02-12T00:30:46.595Z,3.10
2023-02-12T00:33:32.364Z,3.10
2023-02-12T00:36:19.693Z,3.10
2023-02-12T00:39:05.008Z,3.10
2023-02-12T00:41:50.313Z,3.00
2023-02-12T00:44:35.859Z,3.00
2023-02-12T00:47:21.800Z,2.90
2023-02-12T00:50:08.879Z,2.90
2023-02-12T00:52:54.599Z,2.90
2023-02-12T00:55:40.071Z,2.90
2023-02-12T00:58:25.853Z,2.80
2023-02-12T01:01:11.274Z,2.90
2023-02-12T01:03:57.017Z,3.00
2023-02-12T01:06:44.619Z,3.10
2023-02-12T01:09:29.880Z,3.10
2023-02-12T01:12:15.254Z,3.20
2023-02-12T01:15:01.412Z,3.30
2023-02-12T01:17:46.853Z,3.30
2023-02-12T01:20:32.738Z,3.40
2023-02-12T01:23:17.962Z,3.40
2023-02-12T01:26:03.437Z,3.40
2023-02-12T01:28:53.303Z,3.40
2023-02-12T01:31:39.442Z,3.40
2023-02-12T01:34:25.123Z,3.40
2023-02-12T01:37:11.468Z,3.30
2023-02-12T01:39:56.910Z,3.20
2023-02-12T01:42:42.640Z,3.10
2023-02-12T01:45:40.086Z,3.00
2023-02-12T01:48:27.519Z,3.00
2023-02-12T01:51:16.850Z,2.90
2023-02-12T01:54:05.994Z,2.80
2023-02-12T01:56:51.466Z,2.80
2023-02-12T01:59:37.811Z,2.80
2023-02-12T02:02:23.466Z,2.80
2023-02-12T02:05:09.138Z,2.80
2023-02-12T02:07:54.686Z,2.80
2023-02-12T02:10:40.196Z,2.80
2023-02-12T02:13:44.331Z,2.70
2023-02-12T02:16:30.880Z,2.80
2023-02-12T02:19:36.869Z,2.70
2023-02-12T02:22:37.955Z,2.60
2023-02-12T02:25:35.246Z,2.60
2023-02-12T02:28:39.601Z,2.50
2023-02-12T02:31:37.953Z,2.50
2023-02-12T02:34:23.789Z,2.50
2023-02-12T02:37:15.796Z,2.40
2023-02-12T02:40:04.482Z,2.40
2023-02-12T02:43:07.486Z,2.40
2023-02-12T02:45:56.418Z,2.30
2023-02-12T02:48:45.135Z,2.30
2023-02-12T02:51:32.977Z,2.30
2023-02-12T02:54:23.159Z,2.30
2023-02-12T02:57:11.877Z,2.30
2023-02-12T03:00:07.534Z,2.40
2023-02-12T03:02:58.397Z,2.40
2023-02-12T03:05:47.171Z,2.40
2023-02-12T03:08:37.606Z,2.40
2023-02-12T03:11:30.895Z,2.40
2023-02-12T03:14:26.183Z,2.30
2023-02-12T03:17:17.842Z,2.30
2023-02-12T03:20:18.659Z,2.20
2023-02-12T03:23:07.731Z,2.20
2023-02-12T03:26:03.782Z,2.20
2023-02-12T03:28:49.229Z,2.20
2023-02-12T03:31:35.103Z,2.10
2023-02-12T03:34:20.456Z,2.10
2023-02-12T03:37:08.482Z,2.10
2023-02-12T03:40:18.187Z,2.10
2023-02-12T03:43:22.339Z,2.10
2023-02-12T03:46:14.089Z,2.10
2023-02-12T03:49:03.655Z,2.00
2023-02-12T03:51:49.788Z,2.00
2023-02-12T03:54:37.093Z,2.00
2023-02-12T03:57:24.394Z,2.00
2023-02-12T04:00:12.263Z,2.00
2023-02-12T04:03:00.873Z,2.00
2023-02-12T04:05:46.270Z,2.00
2023-02-12T04:08:32.538Z,2.00
2023-02-12T04:11:44.160Z,2.00
2023-02-12T04:14:29.739Z,2.00
2023-02-12T04:17:15.345Z,2.00
2023-02-12T04:20:04.351Z,2.00
2023-02-12T04:23:12.653Z,2.00
2023-02-12T04:25:59.102Z,1.90
2023-02-12T04:29:03.499Z,2.00
2023-02-12T04:32:07.844Z,2.00
2023-02-12T04:34:59.509Z,2.00
2023-02-12T04:37:48.586Z,2.00
2023-02-12T04:40:34.291Z,2.00
2023-02-12T04:43:40.073Z,2.00
2023-02-12T04:46:25.685Z,2.10
2023-02-12T04:49:14.468Z,2.10
2023-02-12T04:51:59.901Z,2.10
2023-02-12T04:54:45.614Z,2.20
2023-02-12T04:57:32.120Z,2.20
2023-02-12T05:00:17.756Z,2.20
2023-02-12T05:03:03.207Z,2.20
2023-02-12T05:05:48.483Z,2.30
2023-02-12T05:08:34.293Z,2.30
2023-02-12T05:11:19.908Z,2.20
2023-02-12T05:14:05.368Z,2.20
2023-02-12T05:16:50.971Z,2.20
2023-02-12T05:19:36.867Z,2.30
2023-02-12T05:22:22.132Z,2.20
2023-02-12T05:25:07.620Z,2.20
2023-02-12T05:27:53.140Z,2.10
2023-02-12T05:30:38.397Z,2.00
2023-02-12T05:33:24.332Z,2.00
2023-02-12T05:36:11.297Z,2.00
2023-02-12T05:38:57.880Z,1.80
2023-02-12T05:41:43.270Z,1.70
2023-02-12T05:44:28.509Z,1.80
2023-02-12T05:47:13.801Z,1.80
2023-02-12T05:49:59.097Z,1.70
2023-02-12T05:52:44.389Z,1.70
2023-02-12T05:55:29.870Z,1.70
2023-02-12T05:58:16.164Z,1.70
2023-02-12T06:01:01.891Z,1.70
2023-02-12T06:03:48.156Z,1.70
2023-02-12T06:06:34.013Z,1.70
2023-02-12T06:09:19.582Z,1.70
2023-02-12T06:12:05.003Z,1.60
2023-02-12T06:14:50.759Z,1.70
2023-02-12T06:17:36.436Z,1.60
2023-02-12T06:20:21.909Z,1.50
2023-02-12T06:23:07.369Z,1.50
2023-02-12T06:25:56.151Z,1.50
2023-02-12T06:28:41.583Z,1.50
2023-02-12T06:31:29.287Z,1.50
2023-02-12T06:34:17.986Z,1.50
2023-02-12T06:37:03.399Z,1.60
2023-02-12T06:39:48.677Z,1.70
2023-02-12T06:42:33.975Z,1.70
2023-02-12T06:45:19.368Z,1.70
2023-02-12T06:48:04.816Z,1.70
2023-02-12T06:50:50.564Z,1.70
2023-02-12T06:53:36.360Z,1.70
2023-02-12T06:56:22.507Z,1.60
2023-02-12T06:59:12.292Z,1.60
2023-02-12T07:01:57.753Z,1.70
2023-02-12T07:04:43.031Z,1.70
2023-02-12T07:07:28.457Z,1.90
2023-02-12T07:10:14.008Z,2.10
2023-02-12T07:12:59.549Z,2.20
2023-02-12T07:15:44.928Z,2.50
2023-02-12T07:18:30.194Z,3.70
2023-02-12T07:21:16.239Z,4.80
2023-02-12T07:24:02.139Z,4.90
2023-02-12T07:26:47.754Z,4.70
2023-02-12T07:29:33.434Z,4.50
2023-02-12T07:32:18.787Z,4.40
2023-02-12T07:35:04.455Z,4.40
2023-02-12T07:37:50.115Z,4.60
2023-02-12T07:40:35.370Z,4.70
2023-02-12T07:43:20.811Z,4.80
2023-02-12T07:46:14.016Z,5.00
2023-02-12T07:49:01.170Z,5.20
2023-02-12T07:51:46.718Z,5.50
2023-02-12T07:54:32.324Z,5.70
2023-02-12T07:57:17.979Z,6.00
2023-02-12T08:00:04.603Z,6.30
2023-02-12T08:02:57.469Z,6.60
2023-02-12T08:05:43.404Z,6.90
2023-02-12T08:08:28.743Z,7.20
2023-02-12T08:11:15.201Z,7.40
2023-02-12T08:14:00.869Z,7.60
2023-02-12T08:16:47.343Z,7.80
2023-02-12T08:19:32.922Z,8.00
2023-02-12T08:22:19.006Z,8.20
2023-02-12T08:25:04.387Z,8.30
2023-02-12T08:27:49.989Z,8.50
2023-02-12T08:30:35.208Z,8.60
2023-02-12T08:33:20.662Z,8.80
2023-02-12T08:36:07.453Z,8.90
2023-02-12T08:38:53.348Z,9.10
2023-02-12T08:41:39.219Z,9.30
2023-02-12T08:44:25.011Z,9.40
2023-02-12T08:47:10.736Z,9.40
2023-02-12T08:49:56.323Z,9.50
2023-02-12T08:52:43.105Z,9.60
2023-02-12T08:55:29.514Z,9.70
2023-02-12T08:58:14.900Z,9.80
2023-02-12T09:01:01.562Z,9.90
2023-02-12T09:03:48.383Z,10.00
2023-02-12T09:06:34.892Z,10.00
2023-02-12T09:09:21.126Z,10.00
2023-02-12T09:12:06.793Z,10.00
2023-02-12T09:14:52.133Z,10.10
2023-02-12T09:17:37.436Z,10.10
2023-02-12T09:20:23.476Z,10.20
2023-02-12T09:23:10.436Z,10.20
2023-02-12T09:25:56.369Z,10.20
2023-02-12T09:28:43.560Z,10.20
2023-02-12T09:31:30.471Z,10.20
2023-02-12T09:34:16.112Z,10.30
2023-02-12T09:37:01.365Z,10.30
2023-02-12T09:39:48.157Z,10.40
2023-02-12T09:42:52.565Z,10.30
2023-02-12T09:45:42.705Z,10.30
2023-02-12T09:48:46.764Z,10.40
2023-02-12T09:51:32.404Z,10.50
2023-02-12T09:54:19.260Z,10.60
2023-02-12T09:57:29.659Z,10.60
2023-02-12T10:00:22.474Z,10.70
2023-02-12T10:03:12.673Z,10.90
2023-02-12T10:06:03.564Z,11.10
2023-02-12T10:09:08.158Z,11.20
2023-02-12T10:11:56.925Z,11.20
2023-02-12T10:15:04.096Z,11.30
2023-02-12T10:18:28.654Z,11.40
2023-02-12T10:21:19.958Z,11.40
2023-02-12T10:24:17.910Z,11.50
2023-02-12T10:27:09.537Z,11.60
2023-02-12T10:29:55.257Z,11.70
2023-02-12T10:32:42.300Z,11.90
2023-02-12T10:35:28.546Z,12.00
2023-02-12T10:38:16.475Z,12.10
2023-02-12T10:41:02.823Z,12.10
2023-02-12T10:43:48.645Z,12.00
2023-02-12T10:46:33.990Z,12.00
2023-02-12T10:49:19.746Z,12.00
2023-02-12T10:52:10.836Z,12.00
2023-02-12T10:54:56.627Z,11.90
2023-02-12T10:57:42.198Z,11.80
2023-02-12T11:00:32.245Z,11.80
2023-02-12T11:03:21.505Z,11.80
2023-02-12T11:06:18.817Z,11.70
2023-02-12T11:09:05.823Z,11.70
2023-02-12T11:11:51.530Z,11.80
2023-02-12T11:14:37.462Z,11.90
2023-02-12T11:17:29.802Z,11.90
2023-02-12T11:20:18.208Z,12.00
2023-02-12T11:23:06.368Z,12.00
2023-02-12T11:26:22.510Z,12.00
2023-02-12T11:29:18.546Z,12.10
2023-02-12T11:32:05.889Z,12.10
2023-02-12T11:35:06.060Z,12.10
2023-02-12T11:37:53.852Z,12.20
2023-02-12T11:40:39.533Z,12.20
2023-02-12T11:43:26.478Z,12.20
2023-02-12T11:46:19.205Z,12.20
2023-02-12T11:49:05.710Z,12.20
2023-02-12T11:51:51.616Z,12.30
2023-02-12T11:54:42.098Z,12.30
2023-02-12T11:57:43.026Z,12.40
2023-02-12T12:00:30.176Z,12.40
2023-02-12T12:03:23.435Z,12.50
2023-02-12T12:06:21.730Z,12.50
2023-02-12T12:09:07.100Z,12.40
2023-02-12T12:12:08.164Z,12.40
2023-02-12T12:15:12.468Z,12.50
2023-02-12T12:18:22.924Z,12.50
2023-02-12T12:21:13.936Z,12.50
2023-02-12T12:24:01.289Z,12.50
2023-02-12T12:26:49.244Z,12.50
2023-02-12T12:30:06.829Z,12.50
2023-02-12T12:32:55.366Z,12.50
2023-02-12T12:36:01.133Z,12.60
2023-02-12T12:39:05.664Z,12.60
2023-02-12T12:42:00.284Z,12.50
2023-02-12T12:44:48.825Z,12.60
2023-02-12T12:47:37.372Z,12.70
2023-02-12T12:50:35.762Z,12.70
2023-02-12T12:53:21.392Z,12.60
2023-02-12T12:56:20.444Z,12.70
2023-02-12T12:59:17.143Z,12.80
2023-02-12T13:02:21.767Z,12.80
2023-02-12T13:05:23.919Z,12.80
2023-02-12T13:08:18.694Z,12.80
2023-02-12T13:11:05.941Z,13.00
2023-02-12T13:13:57.038Z,12.90
2023-02-12T13:16:52.227Z,12.90
2023-02-12T13:20:01.245Z,13.00
2023-02-12T13:22:49.945Z,13.00
2023-02-12T13:25:43.582Z,13.00
2023-02-12T13:28:40.841Z,13.10
2023-02-12T13:31:35.722Z,13.10
2023-02-12T13:34:22.629Z,13.10
2023-02-12T13:37:13.126Z,13.10
2023-02-12T13:40:00.370Z,13.10
2023-02-12T13:43:04.714Z,13.10
2023-02-12T13:45:50.159Z,13.10
2023-02-12T13:48:42.307Z,13.00
2023-02-12T13:51:43.073Z,13.00
2023-02-12T13:54:47.694Z,13.00
2023-02-12T13:57:33.536Z,13.00
2023-02-12T14:00:37.616Z,12.90
2023-02-12T14:03:27.047Z,13.00
2023-02-12T14:06:20.463Z,12.90
2023-02-12T14:09:10.796Z,12.90
2023-02-12T14:11:56.302Z,12.80
2023-02-12T14:14:41.888Z,12.80
2023-02-12T14:17:30.873Z,12.80
2023-02-12T14:20:31.987Z,12.90
2023-02-12T14:23:20.571Z,12.90
2023-02-12T14:26:07.892Z,12.80
2023-02-12T14:28:59.084Z,12.80
2023-02-12T14:31:44.601Z,12.80
2023-02-12T14:34:36.106Z,12.90
2023-02-12T14:37:33.137Z,12.90
2023-02-12T14:40:34.632Z,12.80
2023-02-12T14:43:26.447Z,12.80
2023-02-12T14:46:24.171Z,12.70
2023-02-12T14:49:21.744Z,12.70
2023-02-12T14:52:13.434Z,12.70
2023-02-12T14:55:00.934Z,12.70
2023-02-12T14:57:46.603Z,12.70
2023-02-12T15:00:40.322Z,12.60
2023-02-12T15:03:40.526Z,12.60
2023-02-12T15:06:33.809Z,12.60
2023-02-12T15:09:29.187Z,12.50
2023-02-12T15:12:20.683Z,12.50
2023-02-12T15:15:13.032Z,12.50
2023-02-12T15:18:14.800Z,12.50
2023-02-12T15:21:01.956Z,12.50
2023-02-12T15:23:48.374Z,12.60
2023-02-12T15:26:36.498Z,12.40
2023-02-12T15:29:22.207Z,12.40
2023-02-12T15:32:09.935Z,12.30
2023-02-12T15:34:55.656Z,12.20
2023-02-12T15:37:41.246Z,12.20
2023-02-12T15:40:29.997Z,12.20
2023-02-12T15:43:19.293Z,12.20
2023-02-12T15:46:09.315Z,12.10
2023-02-12T15:48:58.121Z,12.10
2023-02-12T15:51:44.154Z,12.20
2023-02-12T15:54:29.839Z,12.20
2023-02-12T15:57:21.359Z,12.10
2023-02-12T16:00:11.248Z,12.00
2023-02-12T16:02:59.911Z,12.00
2023-02-12T16:05:45.472Z,11.90
2023-02-12T16:08:32.858Z,11.80
2023-02-12T16:11:20.217Z,11.80
2023-02-12T16:14:08.240Z,11.80
2023-02-12T16:16:55.510Z,11.70
2023-02-12T16:19:41.060Z,11.50
2023-02-12T16:22:27.832Z,11.50
2023-02-12T16:25:26.562Z,11.40
2023-02-12T16:28:25.758Z,11.30
2023-02-12T16:31:13.121Z,11.20
2023-02-12T16:33:59.433Z,11.10
2023-02-12T16:36:48.095Z,11.00
2023-02-12T16:40:00.912Z,11.00
2023-02-12T16:42:46.691Z,10.90
2023-02-12T16:45:34.148Z,10.80
2023-02-12T16:48:25.056Z,10.80
2023-02-12T16:51:21.411Z,10.70
2023-02-12T16:54:25.629Z,10.70
2023-02-12T16:57:11.720Z,10.70
2023-02-12T16:59:57.137Z,10.60
2023-02-12T17:02:42.523Z,10.60
2023-02-12T17:05:27.958Z,10.50
2023-02-12T17:08:14.830Z,10.40
2023-02-12T17:11:00.579Z,10.30
2023-02-12T17:13:47.218Z,10.30
2023-02-12T17:16:32.708Z,10.20
2023-02-12T17:19:18.595Z,10.10
2023-02-12T17:22:06.038Z,10.00
2023-02-12T17:24:53.199Z,10.00
2023-02-12T17:27:39.116Z,9.90
2023-02-12T17:30:26.392Z,9.80
2023-02-12T17:33:11.940Z,9.80
2023-02-12T17:35:58.293Z,9.70
2023-02-12T17:38:44.125Z,9.60
2023-02-12T17:41:29.876Z,9.50
2023-02-12T17:44:16.306Z,9.50
2023-02-12T17:47:01.661Z,9.40
2023-02-12T17:49:47.468Z,9.30
2023-02-12T17:52:32.647Z,9.20
2023-02-12T17:55:18.518Z,9.10
2023-02-12T17:58:04.208Z,9.00
2023-02-12T18:00:49.608Z,9.00
2023-02-12T18:03:35.568Z,8.90
2023-02-12T18:06:22.201Z,8.90
2023-02-12T18:09:07.937Z,8.80
2023-02-12T18:11:53.640Z,8.70
2023-02-12T18:14:39.380Z,8.70
2023-02-12T18:17:27.940Z,8.60
2023-02-12T18:20:13.214Z,8.50
2023-02-12T18:22:58.863Z,8.40
2023-02-12T18:25:44.915Z,8.40
2023-02-12T18:28:30.790Z,8.30
2023-02-12T18:31:18.353Z,8.20
2023-02-12T18:34:04.924Z,8.10
2023-02-12T18:36:50.308Z,8.10
2023-02-12T18:39:36.471Z,8.00
2023-02-12T18:42:21.979Z,8.00
2023-02-12T18:45:07.983Z,7.90
2023-02-12T18:47:53.823Z,7.90
2023-02-12T18:50:39.858Z,7.90
2023-02-12T18:53:25.430Z,8.90
2023-02-12T18:56:11.542Z,7.80
2023-02-12T18:58:57.862Z,7.70
2023-02-12T19:01:43.720Z,7.70
2023-02-12T19:04:30.257Z,7.60
2023-02-12T19:07:15.917Z,7.60
2023-02-12T19:10:01.837Z,7.50
2023-02-12T19:12:49.962Z,7.50
2023-02-12T19:15:38.268Z,7.40
2023-02-12T19:18:24.583Z,7.30
2023-02-12T19:21:12.265Z,7.20
2023-02-12T19:23:59.518Z,7.20
2023-02-12T19:26:44.966Z,7.10
2023-02-12T19:29:31.029Z,7.10
2023-02-12T19:32:19.081Z,7.00
2023-02-12T19:35:04.883Z,6.90
2023-02-12T19:37:50.152Z,6.80
2023-02-12T19:40:35.893Z,6.80
2023-02-12T19:43:21.461Z,6.70
2023-02-12T19:46:11.853Z,6.70
2023-02-12T19:48:58.732Z,6.60
2023-02-12T19:51:44.727Z,6.60
2023-02-12T19:54:30.385Z,6.50
2023-02-12T19:57:16.057Z,6.40
2023-02-12T20:00:01.834Z,6.30
2023-02-12T20:02:51.255Z,6.20
2023-02-12T20:05:44.478Z,6.10
2023-02-12T20:08:29.785Z,6.10
2023-02-12T20:11:17.526Z,6.10
2023-02-12T20:14:03.529Z,6.10
2023-02-12T20:16:49.886Z,6.00
2023-02-12T20:19:35.314Z,6.00
2023-02-12T20:22:21.206Z,5.90
2023-02-12T20:25:08.257Z,5.90
2023-02-12T20:27:54.061Z,5.80
2023-02-12T20:30:40.540Z,5.80
2023-02-12T20:33:25.987Z,5.70
2023-02-12T20:36:12.324Z,5.70
2023-02-12T20:38:57.990Z,5.70
2023-02-12T20:41:43.849Z,5.60
2023-02-12T20:44:29.383Z,5.60
2023-02-12T20:47:14.947Z,5.60
2023-02-12T20:50:00.339Z,5.50
2023-02-12T20:52:46.415Z,5.50
2023-02-12T20:55:32.870Z,5.40
2023-02-12T20:58:18.644Z,5.40
2023-02-12T21:01:23.786Z,5.30
2023-02-12T21:04:11.083Z,5.30
2023-02-12T21:06:56.823Z,5.30
2023-02-12T21:09:42.177Z,5.30
2023-02-12T21:12:27.602Z,5.20
2023-02-12T21:15:12.984Z,5.10
2023-02-12T21:17:58.473Z,5.10
2023-02-12T21:20:44.027Z,5.10
2023-02-12T21:23:30.059Z,5.00
2023-02-12T21:26:17.161Z,5.00
2023-02-12T21:29:03.182Z,5.00
2023-02-12T21:31:50.321Z,5.00
2023-02-12T21:34:35.965Z,4.90
2023-02-12T21:37:21.599Z,5.00
2023-02-12T21:40:07.483Z,5.00
2023-02-12T21:42:52.948Z,4.90
2023-02-12T21:45:38.867Z,4.90
2023-02-12T21:48:24.377Z,4.80
2023-02-12T21:51:23.420Z,4.80
2023-02-12T21:54:10.030Z,4.70
2023-02-12T21:56:55.911Z,4.60
2023-02-12T21:59:41.393Z,4.60
2023-02-12T22:02:27.157Z,4.60
2023-02-12T22:05:13.026Z,4.50
2023-02-12T22:07:58.828Z,4.50
2023-02-12T22:10:44.373Z,4.50
2023-02-12T22:13:30.369Z,4.50
2023-02-12T22:16:17.167Z,4.50
2023-02-12T22:19:03.545Z,4.50
2023-02-12T22:21:51.307Z,4.40
2023-02-12T22:24:37.822Z,4.30
2023-02-12T22:27:23.631Z,4.30
2023-02-12T22:30:09.071Z,4.20
2023-02-12T22:32:54.843Z,4.20
2023-02-12T22:35:41.895Z,4.20
2023-02-12T22:38:27.807Z,4.20
2023-02-12T22:41:13.851Z,4.20
2023-02-12T22:44:00.139Z,4.10
2023-02-12T22:46:45.652Z,4.20
2023-02-12T22:49:31.020Z,4.20
2023-02-12T22:52:16.660Z,4.20
2023-02-12T22:55:02.278Z,4.20
2023-02-12T22:57:47.905Z,4.10
2023-02-12T23:00:33.252Z,4.10
2023-02-12T23:03:19.083Z,4.00
2023-02-12T23:06:05.584Z,4.00
2023-02-12T23:08:52.466Z,4.00
2023-02-12T23:11:38.148Z,3.90
2023-02-12T23:14:23.453Z,3.90
2023-02-12T23:17:09.182Z,3.90
2023-02-12T23:19:54.904Z,3.90
2023-02-12T23:22:40.687Z,3.90
2023-02-12T23:25:26.421Z,3.90
2023-02-12T23:28:11.733Z,3.90
2023-02-12T23:30:58.205Z,3.80
2023-02-12T23:33:43.791Z,3.90
2023-02-12T23:36:29.652Z,3.90
2023-02-12T23:39:15.186Z,3.90
2023-02-12T23:42:02.807Z,3.80
2023-02-12T23:44:48.155Z,3.80
2023-02-12T23:47:34.040Z,3.70
2023-02-12T23:50:19.583Z,3.60
2023-02-12T23:53:05.872Z,3.60
2023-02-12T23:55:51.622Z,3.60
2023-02-12T23:58:37.378Z,3.60
